Pagrindinis puslapis
METAR-TAF:

METAR-TAF

Oro uostai :

Cross City, Florida, Jungtinės Amerikos Valstijos

platuma: 29-33-00N, ilguma: 083-06-19W, Aukštis: 12 m

Dabartinis oras

Ataskaita buvo paskelbta 23 minutes, ne 23:55 UTC
Vėjas 8 kt iš Pietų
Temperatūra 20°C
Drėgmė 68%
Slėgis 1014 hPa
Matomumas: 16.1 km
Su prošvaistėmis ne aukštis 8000 ft

METAR: KCTY 242355Z AUTO 17008KT 10SM BKN080 20/14 A2995 RMK AO2 T01990139 10252 20198 402520078

Laikas: 19:18 (00:18 UTC)


TAF: trūkstamas

Orai ataskaitas ir orų prognozės (METAR, TAF).

turimą stotys yra geltonos ir raudonos taškus žemėlapyje.

Perkelti pele per norėdami pamatyti stoties vardą.

Tada spustelėkite, norėdami matyti oro stebėjimo ir prognozės.

Norėdami pakeisti žemėlapį: spustelėkite ant žalios mygtukų su juodo kryžiaus žemyn,; žalią mygtuką su brūkšneliu, jei norite nutolinti; arba žalių rodyklių gretimoms žemėlapius.


METAR-TAF: